Time;durP1;ratioP1;P1;durP2;ratioP2;P2;SDS_P1;SDS_P2;PMS_P1;PMS_P2;Temp;Humidity;BMP_temperature;BMP_pressure;BME280_temperature;BME280_humidity;BME280_pressure;Samples;Min_cycle;Max_cycle;Signal;HPM_P1;HPM_P2
2021/10/16 00:01:13;;;;;;;;;;;4.70;99.90;;;;;;21054522;28;19916;-79
2021/10/16 00:11:14;;;;;;;;;;;4.70;99.90;;;;;;21043451;28;19912;-77
2021/10/16 00:21:14;;;;;;;;;;;4.50;99.90;;;;;;21017839;28;20396;-77
2021/10/16 00:31:15;;;;;;;;;;;4.50;99.90;;;;;;21037107;28;20267;-78
2021/10/16 00:41:16;;;;;;;;;;;4.40;99.90;;;;;;21026613;28;19916;-77
2021/10/16 00:51:16;;;;;;;;;;;4.30;99.90;;;;;;21070143;28;19981;-78
2021/10/16 01:01:17;;;;;;;;;;;4.40;99.90;;;;;;21100886;22;20283;-72
2021/10/16 01:11:35;;;;;;;;;;;4.40;99.90;;;;;;20894290;28;20402;-72
2021/10/16 01:21:39;;;;;;;;;;;4.20;99.90;;;;;;20893413;28;19925;-72
2021/10/16 01:31:40;;;;;;;;;;;4.00;99.90;;;;;;20910668;28;19912;-74
2021/10/16 01:41:41;;;;;;;;;;;4.10;99.90;;;;;;20909969;28;19970;-74
2021/10/16 01:51:46;;;;;;;;;;;4.10;99.90;;;;;;20891407;28;19920;-74
2021/10/16 02:01:47;;;;;;;;;;;3.90;99.90;;;;;;20890617;28;19999;-74
2021/10/16 02:11:56;;;;;;;;;;;3.70;99.90;;;;;;20890365;28;19917;-74
2021/10/16 02:21:57;;;;;;;;;;;3.60;99.90;;;;;;20889898;28;19917;-74
2021/10/16 02:32:00;;;;;;;;;;;3.70;99.90;;;;;;20904327;28;19913;-74
2021/10/16 02:42:02;;;;;;;;;;;3.70;99.90;;;;;;20905844;28;19924;-74
2021/10/16 02:52:04;;;;;;;;;;;3.70;99.90;;;;;;20906731;28;20329;-74
2021/10/16 03:02:06;;;;;;;;;;;3.50;99.90;;;;;;20904519;28;20450;-74
2021/10/16 03:12:06;;;;;;;;;;;3.60;99.90;;;;;;20921721;28;19917;-74
2021/10/16 03:22:14;;;;;;;;;;;3.50;99.90;;;;;;20902896;28;19962;-73
2021/10/16 03:32:15;;;;;;;;;;;3.30;99.90;;;;;;20902158;28;20454;-73
2021/10/16 03:42:16;;;;;;;;;;;3.40;99.90;;;;;;20901731;28;19928;-73
2021/10/16 03:52:26;;;;;;;;;;;3.30;99.90;;;;;;20900643;28;19970;-74
2021/10/16 04:02:28;;;;;;;;;;;3.30;99.90;;;;;;20899502;28;20012;-74
2021/10/16 04:12:29;;;;;;;;;;;3.20;99.90;;;;;;20898913;28;20413;-74
2021/10/16 04:22:31;;;;;;;;;;;3.20;99.90;;;;;;20898123;28;19917;-74
2021/10/16 04:32:35;;;;;;;;;;;3.30;99.90;;;;;;20897469;28;19920;-74
2021/10/16 04:42:36;;;;;;;;;;;3.20;99.90;;;;;;20896543;28;19928;-74
2021/10/16 04:52:37;;;;;;;;;;;3.10;99.90;;;;;;20895556;28;19912;-74
2021/10/16 05:02:42;;;;;;;;;;;2.90;99.90;;;;;;20895099;28;19921;-74
2021/10/16 05:12:43;;;;;;;;;;;3.00;99.90;;;;;;20912247;28;19912;-74
2021/10/16 05:22:44;;;;;;;;;;;2.90;99.90;;;;;;20893505;28;19917;-74
2021/10/16 05:32:46;;;;;;;;;;;2.90;99.90;;;;;;20892707;28;19920;-74
2021/10/16 05:42:49;;;;;;;;;;;2.90;99.90;;;;;;20892176;28;19971;-74
2021/10/16 05:52:50;;;;;;;;;;;3.10;99.90;;;;;;20891310;28;19917;-74
2021/10/16 06:02:52;;;;;;;;;;;3.10;99.90;;;;;;20889886;28;19917;-74
2021/10/16 06:13:09;;;;;;;;;;;3.00;99.90;;;;;;20890103;28;19913;-74
2021/10/16 06:23:10;;;;;;;;;;;3.10;99.90;;;;;;20873354;28;19920;-74
2021/10/16 06:33:12;;;;;;;;;;;3.50;99.90;;;;;;20889484;28;19966;-74
2021/10/16 06:43:13;;;;;;;;;;;4.00;99.90;;;;;;20889121;28;19951;-74
2021/10/16 06:53:38;;;;;;;;;;;4.90;99.90;;;;;;20906557;28;19952;-74
2021/10/16 07:03:39;;;;;;;;;;;5.60;99.90;;;;;;20889324;28;19916;-75
2021/10/16 07:13:39;;;;;;;;;;;6.40;99.90;;;;;;20896770;28;19920;-74
2021/10/16 07:23:40;;;;;;;;;;;6.60;99.90;;;;;;20905079;28;20031;-75
2021/10/16 07:33:41;;;;;;;;;;;6.80;99.90;;;;;;20934413;28;19912;-74
2021/10/16 07:43:42;;;;;;;;;;;6.60;99.90;;;;;;20918788;28;19923;-76
2021/10/16 07:53:43;;;;;;;;;;;7.40;99.90;;;;;;20918768;28;19913;-76
2021/10/16 08:03:43;;;;;;;;;;;7.70;99.90;;;;;;20923661;28;19917;-75
2021/10/16 08:13:44;;;;;;;;;;;8.50;99.90;;;;;;20917392;28;19920;-75
2021/10/16 08:23:45;;;;;;;;;;;9.70;99.90;;;;;;20913660;28;19916;-76
2021/10/16 08:33:46;;;;;;;;;;;9.90;99.90;;;;;;20915165;28;19917;-76
2021/10/16 08:43:47;;;;;;;;;;;10.20;99.90;;;;;;20944539;28;19920;-78
2021/10/16 08:53:48;;;;;;;;;;;11.50;99.90;;;;;;20935534;28;20006;-78
2021/10/16 09:03:51;;;;;;;;;;;11.80;99.90;;;;;;20935471;28;20276;-78
2021/10/16 09:13:52;;;;;;;;;;;12.80;99.90;;;;;;20932537;28;19913;-78
2021/10/16 09:24:10;;;;;;;;;;;13.10;99.90;;;;;;20913755;28;19924;-78
2021/10/16 09:34:11;;;;;;;;;;;13.70;99.90;;;;;;20939279;28;19971;-79
2021/10/16 09:44:23;;;;;;;;;;;15.70;99.90;;;;;;20927988;28;19943;-77
2021/10/16 09:54:23;;;;;;;;;;;15.60;99.90;;;;;;20923997;28;19919;-78
2021/10/16 10:04:25;;;;;;;;;;;17.30;99.90;;;;;;20911327;28;19921;-78
2021/10/16 10:14:26;;;;;;;;;;;16.40;99.90;;;;;;20925947;28;19967;-78
2021/10/16 10:24:41;;;;;;;;;;;18.30;99.90;;;;;;20918919;28;20019;-78
2021/10/16 10:34:51;;;;;;;;;;;19.10;99.90;;;;;;20925652;28;20625;-77
2021/10/16 10:44:53;;;;;;;;;;;19.10;99.90;;;;;;20925488;28;19935;-76
2021/10/16 10:55:06;;;;;;;;;;;19.20;99.90;;;;;;20919703;28;19987;-76
2021/10/16 11:05:30;;;;;;;;;;;19.00;99.90;;;;;;20892079;28;19979;-77
2021/10/16 11:15:30;;;;;;;;;;;18.40;99.90;;;;;;20895179;28;20295;-75
2021/10/16 11:25:34;;;;;;;;;;;20.10;99.90;;;;;;20893999;28;19924;-75
2021/10/16 11:35:35;;;;;;;;;;;19.20;99.90;;;;;;20882446;28;19986;-74
2021/10/16 11:45:37;;;;;;;;;;;20.60;99.90;;;;;;20902232;28;19924;-74
2021/10/16 11:55:39;;;;;;;;;;;20.20;99.90;;;;;;20938007;28;19920;-74
2021/10/16 12:05:41;;;;;;;;;;;19.70;99.90;;;;;;20979825;28;20394;-73
2021/10/16 12:15:46;;;;;;;;;;;20.00;99.90;;;;;;20979714;28;19970;-74
2021/10/16 12:25:48;;;;;;;;;;;19.60;99.90;;;;;;20978741;28;19932;-74
2021/10/16 12:35:56;;;;;;;;;;;19.70;99.90;;;;;;20977738;28;20158;-74
2021/10/16 12:45:56;;;;;;;;;;;20.70;99.90;;;;;;20958634;28;20314;-74
2021/10/16 12:56:13;;;;;;;;;;;19.80;99.90;;;;;;20907630;28;19917;-74
2021/10/16 13:06:13;;;;;;;;;;;20.40;99.90;;;;;;20915313;22;20035;-78
2021/10/16 13:16:14;;;;;;;;;;;20.70;99.90;;;;;;20880353;28;19924;-78
2021/10/16 13:26:15;;;;;;;;;;;19.10;99.90;;;;;;20906866;28;19931;-78
2021/10/16 13:36:16;;;;;;;;;;;19.50;99.90;;;;;;20895321;28;19952;-79
2021/10/16 13:46:17;;;;;;;;;;;19.50;99.90;;;;;;20910418;28;19920;-80
2021/10/16 13:56:18;;;;;;;;;;;20.10;99.90;;;;;;20884642;28;19923;-80
2021/10/16 14:06:18;;;;;;;;;;;19.80;99.90;;;;;;20894103;28;20019;-80
2021/10/16 14:16:21;;;;;;;;;;;19.20;99.90;;;;;;20895626;28;20494;-81
2021/10/16 14:26:22;;;;;;;;;;;19.50;99.90;;;;;;20894905;28;19975;-80
2021/10/16 14:36:23;;;;;;;;;;;19.40;99.90;;;;;;20896482;28;20375;-80
2021/10/16 14:46:23;;;;;;;;;;;19.90;99.90;;;;;;20895386;28;20351;-80
2021/10/16 14:56:26;;;;;;;;;;;19.90;99.90;;;;;;20876818;28;19923;-80
2021/10/16 15:06:26;;;;;;;;;;;19.80;99.90;;;;;;20893881;28;19917;-80
2021/10/16 15:16:28;;;;;;;;;;;19.00;99.90;;;;;;20875624;28;19925;-79
2021/10/16 15:26:28;;;;;;;;;;;18.70;99.90;;;;;;20915823;28;19963;-78
2021/10/16 15:36:29;;;;;;;;;;;17.50;99.90;;;;;;20937198;28;19917;-78
2021/10/16 15:46:30;;;;;;;;;;;16.60;99.90;;;;;;20946923;28;19920;-78
2021/10/16 15:56:30;;;;;;;;;;;15.80;99.90;;;;;;20939519;28;19916;-78
2021/10/16 16:06:31;;;;;;;;;;;15.10;99.90;;;;;;20933703;28;19948;-78
2021/10/16 16:16:32;;;;;;;;;;;14.60;99.90;;;;;;20924048;28;19913;-79
2021/10/16 16:26:33;;;;;;;;;;;14.30;99.90;;;;;;20897651;28;19952;-76
2021/10/16 16:36:33;;;;;;;;;;;14.10;99.90;;;;;;20925009;28;19978;-78
2021/10/16 16:46:34;;;;;;;;;;;14.00;99.90;;;;;;20899846;28;19921;-77
2021/10/16 16:56:35;;;;;;;;;;;13.80;99.90;;;;;;20915911;28;19917;-78
2021/10/16 17:06:36;;;;;;;;;;;12.80;99.90;;;;;;20912867;28;20023;-78
2021/10/16 17:16:36;;;;;;;;;;;12.70;99.90;;;;;;20911031;28;19921;-77
2021/10/16 17:26:38;;;;;;;;;;;12.00;99.90;;;;;;20908526;28;19920;-78
2021/10/16 17:36:40;;;;;;;;;;;11.60;99.90;;;;;;20910375;28;19956;-77
2021/10/16 17:46:41;;;;;;;;;;;11.10;99.90;;;;;;20895695;28;20433;-77
2021/10/16 17:56:42;;;;;;;;;;;10.70;99.90;;;;;;20906557;28;20394;-77
2021/10/16 18:06:43;;;;;;;;;;;10.60;99.90;;;;;;20904540;28;19947;-78
2021/10/16 18:16:46;;;;;;;;;;;10.40;99.90;;;;;;20890866;28;20007;-79
2021/10/16 18:26:46;;;;;;;;;;;10.00;99.90;;;;;;20884774;28;19924;-78
2021/10/16 18:36:47;;;;;;;;;;;9.80;99.90;;;;;;20898605;28;19970;-77
2021/10/16 18:46:48;;;;;;;;;;;9.60;99.90;;;;;;20899230;28;19927;-79
2021/10/16 18:56:49;;;;;;;;;;;8.80;99.90;;;;;;20882589;28;19917;-79
2021/10/16 19:06:52;;;;;;;;;;;8.60;99.90;;;;;;20953170;22;19958;-80
2021/10/16 19:16:52;;;;;;;;;;;8.50;99.90;;;;;;21028345;28;20715;-79
2021/10/16 19:26:55;;;;;;;;;;;8.40;99.90;;;;;;20996211;28;20078;-79
2021/10/16 19:36:56;;;;;;;;;;;7.90;99.90;;;;;;20989416;28;20034;-77
2021/10/16 19:46:56;;;;;;;;;;;7.60;99.90;;;;;;20997478;28;19927;-78
2021/10/16 19:56:57;;;;;;;;;;;7.80;99.90;;;;;;20998372;28;19918;-79
2021/10/16 20:06:58;;;;;;;;;;;7.40;99.90;;;;;;21001329;28;19965;-78
2021/10/16 20:16:59;;;;;;;;;;;7.40;99.90;;;;;;21002595;28;19924;-78
2021/10/16 20:27:04;;;;;;;;;;;7.50;99.90;;;;;;21004074;28;20033;-79
2021/10/16 20:37:05;;;;;;;;;;;7.30;99.90;;;;;;20997208;28;19923;-78
2021/10/16 20:47:06;;;;;;;;;;;7.00;99.90;;;;;;21007726;28;19924;-78
2021/10/16 20:57:07;;;;;;;;;;;6.80;99.90;;;;;;21011110;28;19942;-77
2021/10/16 21:07:08;;;;;;;;;;;6.80;99.90;;;;;;21042802;28;20480;-79
2021/10/16 21:17:08;;;;;;;;;;;6.90;99.90;;;;;;20988030;28;20094;-78
2021/10/16 21:27:09;;;;;;;;;;;7.10;99.90;;;;;;20986839;28;19920;-78
2021/10/16 21:37:11;;;;;;;;;;;7.20;99.90;;;;;;20987600;28;19982;-77
2021/10/16 21:47:11;;;;;;;;;;;7.30;99.90;;;;;;20970245;28;19920;-77
2021/10/16 21:57:12;;;;;;;;;;;7.30;99.90;;;;;;20967394;28;19958;-77
2021/10/16 22:07:13;;;;;;;;;;;7.20;99.90;;;;;;20983866;28;19921;-76
2021/10/16 22:17:14;;;;;;;;;;;7.30;99.90;;;;;;21002476;28;19920;-77
2021/10/16 22:27:15;;;;;;;;;;;6.90;99.90;;;;;;20987905;28;19950;-77
2021/10/16 22:37:15;;;;;;;;;;;6.90;99.90;;;;;;20970465;28;19916;-78
2021/10/16 22:47:16;;;;;;;;;;;6.80;99.90;;;;;;20996274;28;19920;-79
2021/10/16 22:57:22;;;;;;;;;;;6.90;99.90;;;;;;20999529;28;20447;-79
2021/10/16 23:07:23;;;;;;;;;;;7.10;99.90;;;;;;20999810;28;19924;-77
2021/10/16 23:17:23;;;;;;;;;;;7.40;99.90;;;;;;20998209;28;19995;-78
2021/10/16 23:27:24;;;;;;;;;;;7.60;99.90;;;;;;20996541;28;20013;-78
2021/10/16 23:37:25;;;;;;;;;;;7.70;99.90;;;;;;21001440;28;19955;-78
2021/10/16 23:47:27;;;;;;;;;;;7.70;99.90;;;;;;21014941;28;19978;-78
2021/10/16 23:57:27;;;;;;;;;;;7.80;99.90;;;;;;21006508;28;19913;-78
